Observations for CIAMPINO IT-AFB CV, Italy (LIRA)

LIRA 260450Z 01002KT CAVOK 20/17 Q1016  
LIRA 260420Z 02002KT CAVOK 20/17 Q1016  
LIRA 260350Z 02003KT CAVOK 20/17 Q1016  
LIRA 260320Z 02003KT CAVOK 20/17 Q1016  
LIRA 260250Z 02003KT CAVOK 20/17 Q1016  
LIRA 260220Z 01003KT 350V050 CAVOK 21/17 Q1016  
LIRA 260120Z 01003KT CAVOK 21/17 Q1016  
LIRA 260050Z 05003KT CAVOK 21/17 Q1016  
LIRA 260020Z 02005KT CAVOK 21/17 Q1016  
LIRA 252350Z 03003KT CAVOK 21/18 Q1016  
LIRA 252320Z 05003KT CAVOK 22/18 Q1016  
LIRA 252250Z 06002KT CAVOK 22/18 Q1016  
LIRA 252220Z 07003KT CAVOK 22/18 Q1017  
LIRA 252150Z VRB02KT CAVOK 22/18 Q1017  
LIRA 252120Z VRB02KT CAVOK 22/18 Q1017  
LIRA 252050Z VRB02KT CAVOK 22/18 Q1016  
LIRA 252020Z VRB02KT CAVOK 23/18 Q1017  
LIRA 251950Z 05002KT CAVOK 24/19 Q1016  
LIRA 251920Z 09003KT CAVOK 23/19 Q1016  
LIRA 251850Z 01005KT 310V040 CAVOK 25/18 Q1016  
LIRA 251820Z 01004KT 330V040 CAVOK 26/17 Q1016  
LIRA 251750Z 28004KT 250V310 CAVOK 26/19 Q1016  
LIRA 251720Z 27003KT 230V310 CAVOK 27/20 Q1016  
LIRA 251650Z 05004KT 280V080 CAVOK 28/19 Q1015  
LIRA 251620Z 05003KT 020V080 CAVOK 28/17 Q1015  
LIRA 251550Z 08003KT 040V150 9999 SCT060 28/19 Q1015
LIRA 251520Z VRB02KT 9999 SCT050 27/20 Q1015
LIRA 251450Z VRB01KT 9999 BKN040 26/20 Q1015
LIRA 251420Z 12005KT 080V140 9999 BKN035 24/20 Q1016
LIRA 251350Z 16004KT 130V230 9999 -RA FEW020CB BKN035 21/19 Q1016 RETS  
LIRA 251320Z 17007KT 130V200 8000 R15/1400D -TSRA SCT020CB BKN035 20/17 Q1016 RERA  
LIRA 251250Z 17011KT 5000 1600S TSRA BR SCT020CB BKN035 19/16 Q1016 
LIRA 251220Z 19015G48KT 140V240 5000 0700S R15/0800V1400N +TSRA SCT020CB SCT035 19/16 Q1017 
LIRA 251150Z VRB04KT 5000 SHRA VCTS FEW025CB SCT035 29/17 Q1016 
LIRA 251120Z 12004KT 080V220 9999 SCT035TCU 30/16 Q1016 
LIRA 251050Z VRB03KT 9999 SCT035 30/16 Q1016
LIRA 251020Z 18005KT 130V210 9999 FEW040 31/16 Q1016
LIRA 250950Z 30004KT 250V360 CAVOK 30/16 Q1017  
LIRA 250920Z 06004KT 010V130 CAVOK 29/16 Q1017  
LIRA 250850Z 36005KT 330V040 CAVOK 28/16 Q1017  
LIRA 250820Z 02006KT 340V040 CAVOK 27/15 Q1017  
LIRA 250750Z 02005KT 350V050 CAVOK 27/15 Q1017  
LIRA 250720Z 03006KT 310V070 CAVOK 26/15 Q1017  
LIRA 250650Z 02005KT CAVOK 24/16 Q1017  
LIRA 250620Z VRB02KT CAVOK 24/16 Q1016  
LIRA 250550Z 09003KT 060V120 CAVOK 22/15 Q1016  
LIRA 250520Z 05004KT 360V080 CAVOK 21/15 Q1016  
LIRA 250450Z 04004KT CAVOK 20/14 Q1016  
LIRA 250420Z VRB02KT CAVOK 21/14 Q1016